createdAt,value
2022-12-17T00:00:36.208Z,32.13
2022-12-17T00:03:21.728Z,27.00
2022-12-17T00:06:06.827Z,27.08
2022-12-17T00:08:52.351Z,30.52
2022-12-17T00:11:37.763Z,28.60
2022-12-17T00:14:23.292Z,28.90
2022-12-17T00:17:11.718Z,30.67
2022-12-17T00:19:57.042Z,30.52
2022-12-17T00:22:42.387Z,36.45
2022-12-17T00:25:27.964Z,33.47
2022-12-17T00:28:13.041Z,37.03
2022-12-17T00:30:58.261Z,35.13
2022-12-17T00:33:43.936Z,33.17
2022-12-17T00:36:29.205Z,33.65
2022-12-17T00:39:14.626Z,31.65
2022-12-17T00:41:59.924Z,31.98
2022-12-17T00:44:45.253Z,31.20
2022-12-17T00:47:30.865Z,33.00
2022-12-17T00:50:15.974Z,27.75
2022-12-17T00:53:01.377Z,28.85
2022-12-17T00:55:46.670Z,31.60
2022-12-17T00:58:32.073Z,35.40
2022-12-17T01:01:19.112Z,32.33
2022-12-17T01:04:04.774Z,32.05
2022-12-17T01:06:51.632Z,33.22
2022-12-17T01:09:37.584Z,29.63
2022-12-17T01:12:24.065Z,29.85
2022-12-17T01:15:09.511Z,32.00
2022-12-17T01:17:56.297Z,27.63
2022-12-17T01:20:41.779Z,30.23
2022-12-17T01:23:27.514Z,28.10
2022-12-17T01:26:14.341Z,27.63
2022-12-17T01:28:59.666Z,28.35
2022-12-17T01:31:45.293Z,31.05
2022-12-17T01:34:30.689Z,29.00
2022-12-17T01:37:16.048Z,26.40
2022-12-17T01:40:01.332Z,30.38
2022-12-17T01:42:46.612Z,30.25
2022-12-17T01:45:33.030Z,29.27
2022-12-17T01:48:22.312Z,27.73
2022-12-17T01:51:12.020Z,26.90
2022-12-17T01:54:01.951Z,24.17
2022-12-17T01:56:47.419Z,24.70
2022-12-17T01:59:38.507Z,28.67
2022-12-17T02:02:23.915Z,29.05
2022-12-17T02:05:09.193Z,32.95
2022-12-17T02:08:06.784Z,27.85
2022-12-17T02:11:06.461Z,24.83
2022-12-17T02:13:58.551Z,29.52
2022-12-17T02:16:53.530Z,23.58
2022-12-17T02:19:57.764Z,27.08
2022-12-17T02:22:46.219Z,25.63
2022-12-17T02:25:47.346Z,24.33
2022-12-17T02:28:32.900Z,27.30
2022-12-17T02:31:18.362Z,27.08
2022-12-17T02:34:04.149Z,28.85
2022-12-17T02:36:49.643Z,24.65
2022-12-17T02:39:34.878Z,26.67
2022-12-17T02:42:20.231Z,26.73
2022-12-17T02:45:05.564Z,24.77
2022-12-17T02:47:51.036Z,27.02
2022-12-17T02:50:36.496Z,27.15
2022-12-17T02:53:22.495Z,24.92
2022-12-17T02:56:07.875Z,25.60
2022-12-17T02:58:53.221Z,29.02
2022-12-17T03:01:38.631Z,24.27
2022-12-17T03:04:23.878Z,30.00
2022-12-17T03:07:09.309Z,28.92
2022-12-17T03:09:54.603Z,25.90
2022-12-17T03:12:39.877Z,30.95
2022-12-17T03:15:25.728Z,27.08
2022-12-17T03:18:12.135Z,26.85
2022-12-17T03:20:57.524Z,22.75
2022-12-17T03:23:42.981Z,31.73
2022-12-17T03:26:28.350Z,30.25
2022-12-17T03:29:13.703Z,29.67
2022-12-17T03:31:59.020Z,29.77
2022-12-17T03:34:44.369Z,23.83
2022-12-17T03:37:29.777Z,27.20
2022-12-17T03:40:15.082Z,26.60
2022-12-17T03:43:00.464Z,24.20
2022-12-17T03:45:45.844Z,31.75
2022-12-17T03:48:33.266Z,26.40
2022-12-17T03:51:19.516Z,24.10
2022-12-17T03:54:05.321Z,28.65
2022-12-17T03:56:50.574Z,23.63
2022-12-17T03:59:35.894Z,22.73
2022-12-17T04:02:21.301Z,25.40
2022-12-17T04:05:06.624Z,22.90
2022-12-17T04:07:51.953Z,31.15
2022-12-17T04:10:37.365Z,24.23
2022-12-17T04:13:22.684Z,25.85
2022-12-17T04:16:08.269Z,22.15
2022-12-17T04:18:53.681Z,25.67
2022-12-17T04:21:39.145Z,26.65
2022-12-17T04:24:24.704Z,24.13
2022-12-17T04:27:10.019Z,23.75
2022-12-17T04:29:55.487Z,27.00
2022-12-17T04:32:40.801Z,24.33
2022-12-17T04:35:26.383Z,24.17
2022-12-17T04:38:11.771Z,25.60
2022-12-17T04:40:57.140Z,22.00
2022-12-17T04:43:42.580Z,21.08
2022-12-17T04:46:28.099Z,17.80
2022-12-17T04:49:13.414Z,20.38
2022-12-17T04:51:58.666Z,14.30
2022-12-17T04:54:43.930Z,22.52
2022-12-17T04:57:29.368Z,19.25
2022-12-17T05:00:14.692Z,21.25
2022-12-17T05:03:00.200Z,19.10
2022-12-17T05:05:45.527Z,19.98
2022-12-17T05:08:30.979Z,21.27
2022-12-17T05:11:23.652Z,21.45
2022-12-17T05:14:09.113Z,22.38
2022-12-17T05:16:54.328Z,22.25
2022-12-17T05:19:39.613Z,20.42
2022-12-17T05:22:25.024Z,22.92
2022-12-17T05:25:10.467Z,24.55
2022-12-17T05:27:55.883Z,25.98
2022-12-17T05:30:41.215Z,22.15
2022-12-17T05:33:27.041Z,23.60
2022-12-17T05:36:12.392Z,23.83
2022-12-17T05:38:57.730Z,18.23
2022-12-17T05:41:43.151Z,25.52
2022-12-17T05:44:28.548Z,27.30
2022-12-17T05:47:13.920Z,17.85
2022-12-17T05:49:59.364Z,18.30
2022-12-17T05:52:44.713Z,19.17
2022-12-17T05:55:30.174Z,17.30
2022-12-17T05:58:23.792Z,21.40
2022-12-17T06:01:09.146Z,20.05
2022-12-17T06:03:54.557Z,20.17
2022-12-17T06:06:39.673Z,17.90
2022-12-17T06:09:25.007Z,17.67
2022-12-17T06:12:10.356Z,16.30
2022-12-17T06:14:55.620Z,18.58
2022-12-17T06:17:41.170Z,19.02
2022-12-17T06:20:27.105Z,17.98
2022-12-17T06:23:23.740Z,17.63
2022-12-17T06:26:11.920Z,19.00
2022-12-17T06:28:57.438Z,17.23
2022-12-17T06:31:42.935Z,15.93
2022-12-17T06:34:28.361Z,21.90
2022-12-17T06:37:13.746Z,16.52
2022-12-17T06:39:59.140Z,19.52
2022-12-17T06:42:44.561Z,14.18
2022-12-17T06:45:38.080Z,15.02
2022-12-17T06:48:26.108Z,17.15
2022-12-17T06:51:15.596Z,19.60
2022-12-17T06:54:00.916Z,16.45
2022-12-17T06:56:47.065Z,16.85
2022-12-17T06:59:32.329Z,18.90
2022-12-17T07:02:17.865Z,18.48
2022-12-17T07:05:02.957Z,20.80
2022-12-17T07:07:48.247Z,16.73
2022-12-17T07:10:33.662Z,18.25
2022-12-17T07:13:26.108Z,17.75
2022-12-17T07:16:11.971Z,15.65
2022-12-17T07:18:57.974Z,18.60
2022-12-17T07:21:43.616Z,20.40
2022-12-17T07:24:29.297Z,18.05
2022-12-17T07:27:14.488Z,16.60
2022-12-17T07:29:59.974Z,19.00
2022-12-17T07:32:45.410Z,19.15
2022-12-17T07:35:30.945Z,17.65
2022-12-17T07:38:20.244Z,17.75
2022-12-17T07:41:05.488Z,15.98
2022-12-17T07:43:53.287Z,15.27
2022-12-17T07:46:38.764Z,21.02
2022-12-17T07:49:25.899Z,19.92
2022-12-17T07:52:11.737Z,17.15
2022-12-17T07:54:57.049Z,19.08
2022-12-17T07:57:42.393Z,17.33
2022-12-17T08:00:28.052Z,16.13
2022-12-17T08:03:17.660Z,23.15
2022-12-17T08:06:02.989Z,18.33
2022-12-17T08:08:48.445Z,16.88
2022-12-17T08:11:33.779Z,20.77
2022-12-17T08:14:19.289Z,14.55
2022-12-17T08:17:04.553Z,14.55
2022-12-17T08:19:50.063Z,19.48
2022-12-17T08:22:35.442Z,17.60
2022-12-17T08:25:20.776Z,18.35
2022-12-17T08:28:11.049Z,18.85
2022-12-17T08:31:07.506Z,19.00
2022-12-17T08:33:53.356Z,17.83
2022-12-17T08:36:38.587Z,19.50
2022-12-17T08:39:23.966Z,16.77
2022-12-17T08:42:09.417Z,18.42
2022-12-17T08:44:54.760Z,17.15
2022-12-17T08:47:42.719Z,16.20
2022-12-17T08:50:28.164Z,22.80
2022-12-17T08:53:17.652Z,22.55
2022-12-17T08:56:03.147Z,19.75
2022-12-17T08:58:48.576Z,19.65
2022-12-17T09:01:34.076Z,22.63
2022-12-17T09:04:19.299Z,21.45
2022-12-17T09:07:04.696Z,22.33
2022-12-17T09:09:49.991Z,21.20
2022-12-17T09:12:35.348Z,19.65
2022-12-17T09:15:20.737Z,23.00
2022-12-17T09:18:06.253Z,19.98
2022-12-17T09:20:51.463Z,22.98
2022-12-17T09:23:37.249Z,20.70
2022-12-17T09:26:22.805Z,17.77
2022-12-17T09:29:08.309Z,17.98
2022-12-17T09:31:53.772Z,16.92
2022-12-17T09:34:39.163Z,17.98
2022-12-17T09:37:24.532Z,18.33
2022-12-17T09:40:09.822Z,17.27
2022-12-17T09:43:12.964Z,22.02
2022-12-17T09:46:11.651Z,24.95
2022-12-17T09:49:05.707Z,23.65
2022-12-17T09:51:52.749Z,21.67
2022-12-17T09:54:47.826Z,25.77
2022-12-17T09:57:38.712Z,20.00
2022-12-17T10:01:00.911Z,20.50
2022-12-17T10:03:48.171Z,21.00
2022-12-17T10:06:42.908Z,18.95
2022-12-17T10:09:37.457Z,21.27
2022-12-17T10:12:35.160Z,21.27
2022-12-17T10:15:20.365Z,22.08
2022-12-17T10:18:05.815Z,20.42
2022-12-17T10:20:56.905Z,20.00
2022-12-17T10:23:51.992Z,18.38
2022-12-17T10:26:40.104Z,20.70
2022-12-17T10:29:52.092Z,22.23
2022-12-17T10:32:41.967Z,18.20
2022-12-17T10:35:39.076Z,19.35
2022-12-17T10:38:56.875Z,21.35
2022-12-17T10:41:45.005Z,18.08
2022-12-17T10:44:50.415Z,18.85
2022-12-17T10:47:43.929Z,18.92
2022-12-17T10:50:31.862Z,21.63
2022-12-17T10:53:18.153Z,20.20
2022-12-17T10:56:13.286Z,17.63
2022-12-17T10:59:07.911Z,18.55
2022-12-17T11:01:53.896Z,19.73
2022-12-17T11:04:44.160Z,14.85
2022-12-17T11:07:54.688Z,18.45
2022-12-17T11:10:49.664Z,17.73
2022-12-17T11:13:49.387Z,20.60
2022-12-17T11:16:52.108Z,24.70
2022-12-17T11:20:07.170Z,24.67
2022-12-17T11:23:02.102Z,19.80
2022-12-17T11:26:18.714Z,18.45
2022-12-17T11:29:04.106Z,17.67
2022-12-17T11:32:01.163Z,16.75
2022-12-17T11:35:20.382Z,19.45
2022-12-17T11:38:24.256Z,19.75
2022-12-17T11:41:20.393Z,18.88
2022-12-17T11:44:26.617Z,21.30
2022-12-17T11:47:43.093Z,18.92
2022-12-17T11:50:47.168Z,19.10
2022-12-17T11:53:57.083Z,20.85
2022-12-17T11:56:51.020Z,21.58
2022-12-17T11:59:55.149Z,17.95
2022-12-17T12:03:17.064Z,18.45
2022-12-17T12:06:11.279Z,16.67
2022-12-17T12:09:14.596Z,16.48
2022-12-17T12:12:21.397Z,20.00
2022-12-17T12:15:27.932Z,17.80
2022-12-17T12:18:22.036Z,18.25
2022-12-17T12:21:48.885Z,17.58
2022-12-17T12:24:58.824Z,16.90
2022-12-17T12:27:53.156Z,21.33
2022-12-17T12:30:48.108Z,18.63
2022-12-17T12:33:48.264Z,16.77
2022-12-17T12:36:37.144Z,17.05
2022-12-17T12:39:23.696Z,17.55
2022-12-17T12:42:37.379Z,18.58
2022-12-17T12:45:42.161Z,17.00
2022-12-17T12:48:42.351Z,22.00
2022-12-17T12:51:43.424Z,18.45
2022-12-17T12:54:51.514Z,18.73
2022-12-17T12:57:48.342Z,20.45
2022-12-17T13:01:06.236Z,20.17
2022-12-17T13:04:03.541Z,20.17
2022-12-17T13:06:51.220Z,18.75
2022-12-17T13:09:18.048Z,19.83
2022-12-17T13:11:48.184Z,18.90
2022-12-17T13:14:44.201Z,17.85
2022-12-17T13:17:16.793Z,16.50
2022-12-17T13:19:47.214Z,16.55
2022-12-17T13:22:23.371Z,18.08
2022-12-17T13:24:54.447Z,18.90
2022-12-17T13:27:36.044Z,16.88
2022-12-17T13:30:17.762Z,17.38
2022-12-17T13:33:05.868Z,14.68
2022-12-17T13:36:06.103Z,16.65
2022-12-17T13:38:41.632Z,15.27
2022-12-17T13:41:12.978Z,15.55
2022-12-17T13:43:44.673Z,13.27
2022-12-17T13:46:25.698Z,15.10
2022-12-17T13:48:57.756Z,14.93
2022-12-17T13:51:28.124Z,15.18
2022-12-17T13:53:57.831Z,15.27
2022-12-17T13:56:27.461Z,17.40
2022-12-17T13:58:55.683Z,14.80
2022-12-17T14:01:23.080Z,15.82
2022-12-17T14:04:08.090Z,15.15
2022-12-17T14:06:37.795Z,18.00
2022-12-17T14:09:05.214Z,17.92
2022-12-17T14:11:51.972Z,15.90
2022-12-17T14:14:32.337Z,14.10
2022-12-17T14:17:00.498Z,15.17
2022-12-17T14:19:28.417Z,19.38
2022-12-17T14:21:55.844Z,18.15
2022-12-17T14:24:27.002Z,15.90
2022-12-17T14:26:56.386Z,12.50
2022-12-17T14:29:25.500Z,11.43
2022-12-17T14:32:21.193Z,13.23
2022-12-17T14:34:47.980Z,11.15
2022-12-17T14:37:21.438Z,10.63
2022-12-17T14:39:48.506Z,9.43
2022-12-17T14:42:26.574Z,14.13
2022-12-17T14:44:57.756Z,11.70
2022-12-17T14:47:34.702Z,10.30
2022-12-17T14:50:11.893Z,10.20
2022-12-17T14:52:53.112Z,8.25
2022-12-17T14:55:28.633Z,11.23
2022-12-17T14:58:13.616Z,8.93
2022-12-17T15:00:41.489Z,7.32
2022-12-17T15:03:14.639Z,7.70
2022-12-17T15:05:41.278Z,8.25
2022-12-17T15:08:07.908Z,8.80
2022-12-17T15:10:34.572Z,7.75
2022-12-17T15:13:01.303Z,8.82
2022-12-17T15:15:28.360Z,10.00
2022-12-17T15:17:55.028Z,9.15
2022-12-17T15:20:21.688Z,7.32
2022-12-17T15:22:48.584Z,10.32
2022-12-17T15:25:18.093Z,8.02
2022-12-17T15:27:45.456Z,8.45
2022-12-17T15:30:19.010Z,10.02
2022-12-17T15:32:47.148Z,9.93
2022-12-17T15:35:14.423Z,8.52
2022-12-17T15:37:41.081Z,10.43
2022-12-17T15:40:11.757Z,9.75
2022-12-17T15:43:04.459Z,12.75
2022-12-17T15:45:31.855Z,11.80
2022-12-17T15:47:58.392Z,10.65
2022-12-17T15:50:25.014Z,11.23
2022-12-17T15:52:51.590Z,12.98
2022-12-17T15:55:18.197Z,13.18
2022-12-17T15:57:44.874Z,12.40
2022-12-17T16:00:12.180Z,10.77
2022-12-17T16:02:39.119Z,13.52
2022-12-17T16:05:06.532Z,13.13
2022-12-17T16:07:33.291Z,13.18
2022-12-17T16:10:04.792Z,11.02
2022-12-17T16:12:32.758Z,14.15
2022-12-17T16:14:59.331Z,11.60
2022-12-17T16:17:25.903Z,14.93
2022-12-17T16:19:52.562Z,10.13
2022-12-17T16:22:19.295Z,15.75
2022-12-17T16:24:46.090Z,13.38
2022-12-17T16:27:13.901Z,14.30
2022-12-17T16:29:40.500Z,14.88
2022-12-17T16:32:07.061Z,14.27
2022-12-17T16:34:33.727Z,17.17
2022-12-17T16:37:01.472Z,17.70
2022-12-17T16:39:28.607Z,14.95
2022-12-17T16:41:55.290Z,19.98
2022-12-17T16:44:21.845Z,16.30
2022-12-17T16:46:48.706Z,14.85
2022-12-17T16:49:20.574Z,20.30
2022-12-17T16:51:50.519Z,18.63
2022-12-17T16:54:20.355Z,16.92
2022-12-17T16:56:47.747Z,19.52
2022-12-17T16:59:15.910Z,16.77
2022-12-17T17:01:45.521Z,20.40
2022-12-17T17:04:14.067Z,21.95
2022-12-17T17:06:44.857Z,14.65
2022-12-17T17:09:12.523Z,13.10
2022-12-17T17:11:39.593Z,16.35
2022-12-17T17:14:07.523Z,15.00
2022-12-17T17:16:34.620Z,21.42
2022-12-17T17:19:01.822Z,17.88
2022-12-17T17:21:30.054Z,17.13
2022-12-17T17:24:07.167Z,17.27
2022-12-17T17:26:34.908Z,19.98
2022-12-17T17:29:02.182Z,16.13
2022-12-17T17:32:01.290Z,21.55
2022-12-17T17:34:15.873Z,17.77
2022-12-17T17:36:42.855Z,19.60
2022-12-17T17:39:09.432Z,23.45
2022-12-17T17:41:36.955Z,21.20
2022-12-17T17:44:11.784Z,16.63
2022-12-17T17:46:39.059Z,21.70
2022-12-17T17:49:07.512Z,17.33
2022-12-17T17:52:08.524Z,16.60
2022-12-17T17:54:24.128Z,16.65
2022-12-17T17:56:50.716Z,14.25
2022-12-17T17:59:19.193Z,19.23
2022-12-17T18:01:49.319Z,14.70
2022-12-17T18:04:19.223Z,15.43
2022-12-17T18:07:09.044Z,15.68
2022-12-17T18:09:33.736Z,14.82
2022-12-17T18:12:20.327Z,13.02
2022-12-17T18:15:12.520Z,17.17
2022-12-17T18:17:33.433Z,12.93
2022-12-17T18:20:00.001Z,16.48
2022-12-17T18:22:28.259Z,16.42
2022-12-17T18:24:54.912Z,13.98
2022-12-17T18:27:21.472Z,17.92
2022-12-17T18:29:48.032Z,16.85
2022-12-17T18:32:14.601Z,16.17
2022-12-17T18:34:41.385Z,16.52
2022-12-17T18:37:08.115Z,17.17
2022-12-17T18:39:34.832Z,16.98
2022-12-17T18:42:20.207Z,20.63
2022-12-17T18:44:46.876Z,22.63
2022-12-17T18:47:13.740Z,18.33
2022-12-17T18:49:40.469Z,22.27
2022-12-17T18:52:11.754Z,16.90
2022-12-17T18:54:41.499Z,15.23
2022-12-17T18:57:08.160Z,15.40
2022-12-17T18:59:34.915Z,14.85
2022-12-17T19:02:01.757Z,14.73
2022-12-17T19:04:28.502Z,12.65
2022-12-17T19:06:55.356Z,12.40
2022-12-17T19:09:25.403Z,12.35
2022-12-17T19:11:52.915Z,9.48
2022-12-17T19:14:22.076Z,10.90
2022-12-17T19:16:50.162Z,11.02
2022-12-17T19:19:17.323Z,12.90
2022-12-17T19:21:44.324Z,10.80
2022-12-17T19:24:16.580Z,11.93
2022-12-17T19:26:44.052Z,12.30
2022-12-17T19:29:12.327Z,9.40
2022-12-17T19:31:39.534Z,12.15
2022-12-17T19:34:07.903Z,13.43
2022-12-17T19:36:35.965Z,10.93
2022-12-17T19:39:05.771Z,10.55
2022-12-17T19:41:32.832Z,12.50
2022-12-17T19:44:01.743Z,12.20
2022-12-17T19:46:29.846Z,12.15
2022-12-17T19:48:57.275Z,11.23
2022-12-17T19:51:26.133Z,11.48
2022-12-17T19:53:54.511Z,10.98
2022-12-17T19:56:29.972Z,14.48
2022-12-17T19:59:02.259Z,12.20
2022-12-17T20:01:32.000Z,14.40
2022-12-17T20:03:59.069Z,13.45
2022-12-17T20:06:31.374Z,11.02
2022-12-17T20:08:59.212Z,12.30
2022-12-17T20:11:35.793Z,14.85
2022-12-17T20:14:15.843Z,10.88
2022-12-17T20:16:46.473Z,10.70
2022-12-17T20:19:16.257Z,9.98
2022-12-17T20:21:43.213Z,12.43
2022-12-17T20:24:11.198Z,10.98
2022-12-17T20:26:38.524Z,12.77
2022-12-17T20:29:06.387Z,8.80
2022-12-17T20:31:33.981Z,11.75
2022-12-17T20:34:01.657Z,14.88
2022-12-17T20:36:28.258Z,12.48
2022-12-17T20:38:55.090Z,15.63
2022-12-17T20:41:24.485Z,13.02
2022-12-17T20:43:51.635Z,12.30
2022-12-17T20:46:20.067Z,12.30
2022-12-17T20:48:46.839Z,14.85
2022-12-17T20:51:21.542Z,10.57
2022-12-17T20:53:48.177Z,12.73
2022-12-17T20:56:17.703Z,11.10
2022-12-17T20:58:44.368Z,8.77
2022-12-17T21:01:15.470Z,13.95
2022-12-17T21:03:42.969Z,14.70
2022-12-17T21:06:18.609Z,12.20
2022-12-17T21:08:50.535Z,9.82
2022-12-17T21:11:27.045Z,10.57
2022-12-17T21:13:54.818Z,13.70
2022-12-17T21:16:24.713Z,13.85
2022-12-17T21:18:51.313Z,11.25
2022-12-17T21:21:20.452Z,14.50
2022-12-17T21:23:48.076Z,11.23
2022-12-17T21:26:20.626Z,14.32
2022-12-17T21:28:49.481Z,14.88
2022-12-17T21:31:37.970Z,16.95
2022-12-17T21:34:06.541Z,15.52
2022-12-17T21:36:34.083Z,18.30
2022-12-17T21:39:01.287Z,21.35
2022-12-17T21:41:32.432Z,18.38
2022-12-17T21:44:01.415Z,21.67
2022-12-17T21:46:29.152Z,18.70
2022-12-17T21:49:01.033Z,12.40
2022-12-17T21:51:29.011Z,20.45
2022-12-17T21:53:58.766Z,14.18
2022-12-17T21:56:26.779Z,16.23
2022-12-17T21:58:58.852Z,18.27
2022-12-17T22:01:29.578Z,18.55
2022-12-17T22:03:58.664Z,17.75
2022-12-17T22:06:31.788Z,19.80
2022-12-17T22:09:03.856Z,18.35
2022-12-17T22:11:39.694Z,20.05
2022-12-17T22:14:09.109Z,23.83
2022-12-17T22:16:43.368Z,26.27
2022-12-17T22:19:12.352Z,29.30
2022-12-17T22:21:40.515Z,32.38
2022-12-17T22:24:07.577Z,26.15
2022-12-17T22:26:34.440Z,19.80
2022-12-17T22:29:01.171Z,23.02
2022-12-17T22:31:46.632Z,19.40
2022-12-17T22:35:32.686Z,18.20
2022-12-17T22:39:21.242Z,21.58
2022-12-17T22:44:07.740Z,17.20
2022-12-17T22:44:38.221Z,12.55
2022-12-17T22:45:40.729Z,14.90
2022-12-17T22:48:09.499Z,18.80
2022-12-17T22:50:38.392Z,19.50
2022-12-17T22:53:09.703Z,19.75
2022-12-17T22:55:37.118Z,21.42
2022-12-17T22:58:04.294Z,24.58
2022-12-17T23:00:34.985Z,21.15
2022-12-17T23:03:02.516Z,19.00
2022-12-17T23:05:29.712Z,16.63
2022-12-17T23:07:57.615Z,19.98
2022-12-17T23:10:25.805Z,18.35
2022-12-17T23:12:56.874Z,18.23
2022-12-17T23:15:36.765Z,14.95
2022-12-17T23:18:06.060Z,15.43
2022-12-17T23:20:35.216Z,17.13
2022-12-17T23:23:01.882Z,15.75
2022-12-17T23:25:29.182Z,19.75
2022-12-17T23:27:56.135Z,18.15
2022-12-17T23:30:23.048Z,16.48
2022-12-17T23:32:49.943Z,16.95
2022-12-17T23:35:16.625Z,17.42
2022-12-17T23:37:43.304Z,16.42
2022-12-17T23:40:11.044Z,17.45
2022-12-17T23:42:38.440Z,16.23
2022-12-17T23:45:06.681Z,15.27
2022-12-17T23:47:33.247Z,17.33
2022-12-17T23:49:59.851Z,12.75
2022-12-17T23:52:26.541Z,17.02
2022-12-17T23:54:53.209Z,14.15
2022-12-17T23:57:19.991Z,16.48
2022-12-17T23:59:46.716Z,15.27
